createdAt,value
2019-03-06T00:01:35.772Z,15.23
2019-03-06T00:04:09.154Z,10.87
2019-03-06T00:06:43.456Z,13.03
2019-03-06T00:09:16.870Z,16.37
2019-03-06T00:11:55.525Z,15.90
2019-03-06T00:14:28.806Z,16.03
2019-03-06T00:17:02.170Z,15.97
2019-03-06T00:19:35.556Z,14.33
2019-03-06T00:22:09.196Z,17.27
2019-03-06T00:24:42.514Z,14.00
2019-03-06T00:27:16.884Z,16.60
2019-03-06T00:29:50.307Z,15.07
2019-03-06T00:32:24.469Z,15.53
2019-03-06T00:34:59.319Z,16.77
2019-03-06T00:37:32.734Z,12.07
2019-03-06T00:40:08.612Z,15.97
2019-03-06T00:42:45.153Z,17.00
2019-03-06T00:45:18.376Z,8.60
2019-03-06T00:47:51.750Z,15.03
2019-03-06T00:50:25.365Z,11.77
2019-03-06T00:52:59.036Z,14.97
2019-03-06T00:55:32.572Z,8.40
2019-03-06T00:58:07.165Z,14.23
2019-03-06T01:03:54.485Z,12.17
2019-03-06T01:06:28.620Z,15.23
2019-03-06T01:09:10.034Z,15.53
2019-03-06T01:11:43.491Z,15.67
2019-03-06T01:14:17.058Z,10.33
2019-03-06T01:16:50.488Z,17.63
2019-03-06T01:19:23.916Z,14.33
2019-03-06T01:21:57.239Z,17.67
2019-03-06T01:24:30.563Z,14.83
2019-03-06T01:27:06.149Z,12.80
2019-03-06T01:29:39.485Z,11.97
2019-03-06T01:32:12.843Z,17.20
2019-03-06T01:34:47.880Z,19.40
2019-03-06T01:40:21.167Z,15.20
2019-03-06T01:43:00.016Z,19.13
2019-03-06T01:45:33.385Z,14.93
2019-03-06T01:48:51.262Z,19.80
2019-03-06T01:51:24.709Z,8.67
2019-03-06T01:54:01.101Z,20.37
2019-03-06T01:56:34.433Z,18.20
2019-03-06T01:59:07.782Z,11.37
2019-03-06T02:01:41.629Z,19.30
2019-03-06T02:04:15.134Z,16.10
2019-03-06T02:06:49.767Z,18.80
2019-03-06T02:09:24.755Z,12.90
2019-03-06T02:12:03.702Z,23.73
2019-03-06T02:14:36.998Z,20.67
2019-03-06T02:17:10.340Z,14.70
2019-03-06T02:19:43.758Z,16.50
2019-03-06T02:22:17.192Z,19.13
2019-03-06T02:24:50.629Z,11.83
2019-03-06T02:27:24.084Z,20.43
2019-03-06T02:29:58.654Z,18.77
2019-03-06T02:32:32.102Z,18.50
2019-03-06T02:35:07.836Z,12.80
2019-03-06T02:37:41.164Z,16.00
2019-03-06T02:40:14.983Z,17.03
2019-03-06T02:42:48.443Z,19.90
2019-03-06T02:45:22.621Z,17.23
2019-03-06T02:47:56.053Z,19.37
2019-03-06T02:50:29.642Z,17.63
2019-03-06T02:53:03.036Z,19.63
2019-03-06T02:55:36.441Z,17.63
2019-03-06T02:58:11.436Z,17.37
2019-03-06T03:00:59.799Z,17.43
2019-03-06T03:03:42.163Z,15.53
2019-03-06T03:06:26.150Z,16.00
2019-03-06T03:08:59.478Z,16.40
2019-03-06T03:11:33.279Z,13.97
2019-03-06T03:14:06.623Z,15.93
2019-03-06T03:16:58.416Z,18.47
2019-03-06T03:19:31.754Z,17.27
2019-03-06T03:22:06.334Z,17.60
2019-03-06T03:24:39.774Z,19.00
2019-03-06T03:27:14.374Z,17.10
2019-03-06T03:29:47.812Z,18.87
2019-03-06T03:32:24.440Z,17.73
2019-03-06T03:34:57.797Z,13.57
2019-03-06T03:37:31.093Z,18.13
2019-03-06T03:40:07.733Z,17.13
2019-03-06T03:42:41.050Z,15.37
2019-03-06T03:45:17.280Z,15.90
2019-03-06T03:47:50.626Z,8.63
2019-03-06T03:50:24.124Z,17.37
2019-03-06T03:52:57.550Z,10.87
2019-03-06T03:55:32.316Z,14.23
2019-03-06T03:58:05.701Z,9.60
2019-03-06T04:00:57.380Z,17.20
2019-03-06T04:03:31.002Z,18.87
2019-03-06T04:06:04.497Z,16.67
2019-03-06T04:08:38.121Z,15.07
2019-03-06T04:11:11.396Z,18.17
2019-03-06T04:13:44.843Z,8.80
2019-03-06T04:16:18.135Z,11.60
2019-03-06T04:18:55.338Z,15.23
2019-03-06T04:24:26.619Z,15.27
2019-03-06T04:27:00.375Z,13.67
2019-03-06T04:29:38.684Z,12.37
2019-03-06T04:32:11.956Z,14.20
2019-03-06T04:34:48.736Z,14.60
2019-03-06T04:37:48.397Z,13.67
2019-03-06T04:40:23.281Z,14.03
2019-03-06T04:42:56.545Z,14.43
2019-03-06T04:45:29.818Z,13.57
2019-03-06T04:51:00.493Z,16.90
2019-03-06T04:53:33.856Z,19.03
2019-03-06T04:56:07.816Z,14.63
2019-03-06T04:58:41.074Z,15.90
2019-03-06T05:01:14.483Z,9.67
2019-03-06T05:03:49.565Z,7.97
2019-03-06T05:06:23.012Z,18.13
2019-03-06T05:08:56.372Z,20.30
2019-03-06T05:11:29.658Z,15.30
2019-03-06T05:14:03.024Z,19.57
2019-03-06T05:16:54.224Z,17.40
2019-03-06T05:19:27.478Z,20.10
2019-03-06T05:22:01.866Z,20.93
2019-03-06T05:24:35.230Z,18.17
2019-03-06T05:27:08.603Z,19.60
2019-03-06T05:29:41.946Z,18.30
2019-03-06T05:32:36.225Z,10.87
2019-03-06T05:35:36.688Z,19.30
2019-03-06T05:38:17.622Z,11.57
2019-03-06T05:40:50.874Z,18.70
2019-03-06T05:43:24.189Z,22.40
2019-03-06T05:45:57.757Z,19.07
2019-03-06T05:48:31.191Z,9.83
2019-03-06T05:51:04.591Z,7.90
2019-03-06T05:53:37.857Z,18.03
2019-03-06T05:56:11.218Z,10.20
2019-03-06T05:58:44.493Z,17.57
2019-03-06T06:01:17.809Z,14.93
2019-03-06T06:03:51.356Z,18.70
2019-03-06T06:06:24.710Z,17.10
2019-03-06T06:08:57.958Z,16.80
2019-03-06T06:11:31.264Z,15.97
2019-03-06T06:14:04.686Z,17.00
2019-03-06T06:16:38.058Z,10.67
2019-03-06T06:19:11.345Z,15.53
2019-03-06T06:21:46.228Z,15.43
2019-03-06T06:24:19.649Z,15.00
2019-03-06T06:26:53.094Z,12.37
2019-03-06T06:29:26.448Z,9.70
2019-03-06T06:32:01.364Z,16.27
2019-03-06T06:34:34.757Z,15.83
2019-03-06T06:37:08.133Z,15.77
2019-03-06T06:39:41.494Z,11.30
2019-03-06T06:42:15.035Z,14.33
2019-03-06T06:44:48.357Z,16.27
2019-03-06T06:47:23.555Z,11.50
2019-03-06T06:50:00.687Z,17.17
2019-03-06T06:52:50.166Z,19.47
2019-03-06T06:55:33.688Z,16.77
2019-03-06T06:58:37.188Z,17.50
2019-03-06T07:01:25.254Z,10.30
2019-03-06T07:04:39.000Z,12.63
2019-03-06T07:07:29.940Z,18.63
2019-03-06T07:10:03.084Z,17.00
2019-03-06T07:12:53.284Z,18.13
2019-03-06T07:15:33.126Z,20.37
2019-03-06T07:18:12.368Z,15.50
2019-03-06T07:20:51.327Z,19.10
2019-03-06T07:23:26.254Z,12.03
2019-03-06T07:26:04.554Z,15.97
2019-03-06T07:28:42.554Z,18.27
2019-03-06T07:31:17.413Z,21.87
2019-03-06T07:33:55.318Z,20.70
2019-03-06T07:36:45.055Z,19.93
2019-03-06T07:39:24.783Z,18.50
2019-03-06T07:42:03.686Z,16.63
2019-03-06T07:44:50.506Z,17.37
2019-03-06T07:47:41.792Z,20.03
2019-03-06T07:50:17.080Z,16.70
2019-03-06T07:53:28.346Z,12.73
2019-03-06T07:56:03.335Z,19.60
2019-03-06T07:58:55.632Z,18.00
2019-03-06T08:01:34.038Z,18.47
2019-03-06T08:04:12.798Z,17.27
2019-03-06T08:06:47.710Z,16.77
2019-03-06T08:09:22.079Z,16.17
2019-03-06T08:11:57.996Z,19.93
2019-03-06T08:14:59.834Z,27.77
2019-03-06T08:17:38.919Z,7.30
2019-03-06T08:20:30.200Z,16.77
2019-03-06T08:23:11.050Z,15.80
2019-03-06T08:25:48.075Z,14.27
2019-03-06T08:28:21.459Z,14.83
2019-03-06T08:30:56.419Z,16.70
2019-03-06T08:33:29.936Z,15.07
2019-03-06T08:36:03.318Z,13.43
2019-03-06T08:38:38.717Z,14.13
2019-03-06T08:41:12.163Z,12.33
2019-03-06T08:43:45.605Z,13.90
2019-03-06T08:46:36.548Z,11.43
2019-03-06T08:49:11.407Z,13.23
2019-03-06T08:51:47.487Z,8.83
2019-03-06T08:54:30.926Z,12.60
2019-03-06T08:57:18.922Z,14.23
2019-03-06T08:59:54.744Z,9.67
2019-03-06T09:02:31.317Z,7.70
2019-03-06T09:05:16.965Z,9.20
2019-03-06T09:07:57.857Z,9.80
2019-03-06T09:10:36.775Z,6.80
2019-03-06T09:13:15.404Z,11.40
2019-03-06T09:16:06.412Z,11.53
2019-03-06T09:18:44.024Z,10.90
2019-03-06T09:21:21.638Z,10.63
2019-03-06T09:24:07.535Z,11.05
2019-03-06T09:26:51.097Z,11.10
2019-03-06T09:32:20.133Z,11.15
2019-03-06T09:34:59.866Z,8.35
2019-03-06T09:37:35.022Z,5.83
2019-03-06T09:40:30.228Z,9.13
2019-03-06T09:43:05.388Z,10.08
2019-03-06T09:45:55.445Z,9.33
2019-03-06T09:48:32.513Z,9.50
2019-03-06T09:51:10.285Z,9.00
2019-03-06T09:53:52.246Z,7.72
2019-03-06T09:56:34.518Z,11.22
2019-03-06T09:59:09.518Z,10.63
2019-03-06T10:01:47.291Z,11.05
2019-03-06T10:04:24.873Z,7.15
2019-03-06T10:07:05.864Z,6.83
2019-03-06T10:09:40.777Z,6.87
2019-03-06T10:12:18.209Z,7.75
2019-03-06T10:15:11.407Z,8.08
2019-03-06T10:17:55.109Z,7.53
2019-03-06T10:20:29.433Z,5.95
2019-03-06T10:23:02.709Z,6.67
2019-03-06T10:25:36.086Z,5.63
2019-03-06T10:28:09.505Z,7.10
2019-03-06T10:30:43.464Z,5.92
2019-03-06T10:33:16.963Z,6.10
2019-03-06T10:35:50.237Z,7.03
2019-03-06T10:38:23.556Z,4.95
2019-03-06T10:40:56.797Z,4.80
2019-03-06T10:43:31.156Z,6.95
2019-03-06T10:46:04.507Z,4.35
2019-03-06T10:48:37.894Z,4.53
2019-03-06T10:51:11.456Z,6.95
2019-03-06T10:53:44.766Z,7.42
2019-03-06T10:56:18.207Z,7.47
2019-03-06T10:58:51.604Z,8.83
2019-03-06T11:01:25.155Z,9.40
2019-03-06T11:04:07.118Z,8.73
2019-03-06T11:06:40.726Z,8.68
2019-03-06T11:09:14.297Z,8.88
2019-03-06T11:11:47.695Z,9.40
2019-03-06T11:14:22.095Z,8.63
2019-03-06T11:16:55.452Z,7.40
2019-03-06T11:19:29.344Z,7.75
2019-03-06T11:22:02.849Z,8.83
2019-03-06T11:24:36.414Z,10.68
2019-03-06T11:27:11.190Z,9.13
2019-03-06T11:29:44.701Z,8.98
2019-03-06T11:32:18.074Z,7.47
2019-03-06T11:34:52.886Z,7.55
2019-03-06T11:37:26.535Z,8.13
2019-03-06T11:40:00.058Z,10.18
2019-03-06T11:42:33.696Z,9.28
2019-03-06T11:45:09.986Z,9.78
2019-03-06T11:47:43.407Z,13.25
2019-03-06T11:50:18.804Z,9.95
2019-03-06T11:52:52.396Z,11.97
2019-03-06T11:55:28.416Z,15.80
2019-03-06T11:58:01.658Z,13.62
2019-03-06T12:00:42.710Z,9.10
2019-03-06T12:03:21.853Z,9.20
2019-03-06T12:05:56.934Z,9.43
2019-03-06T12:08:30.176Z,8.83
2019-03-06T12:11:11.075Z,8.93
2019-03-06T12:13:44.329Z,8.18
2019-03-06T12:16:20.130Z,9.23
2019-03-06T12:18:54.356Z,10.35
2019-03-06T12:21:27.786Z,11.53
2019-03-06T12:24:01.044Z,9.48
2019-03-06T12:26:35.074Z,9.50
2019-03-06T12:29:08.404Z,8.68
2019-03-06T12:31:42.217Z,9.28
2019-03-06T12:34:15.848Z,9.45
2019-03-06T12:36:49.521Z,8.58
2019-03-06T12:39:23.057Z,9.63
2019-03-06T12:41:56.478Z,8.78
2019-03-06T12:44:29.904Z,8.23
2019-03-06T12:47:04.815Z,8.75
2019-03-06T12:49:38.083Z,10.05
2019-03-06T12:52:11.482Z,9.13
2019-03-06T12:54:44.891Z,8.85
2019-03-06T12:57:18.387Z,6.90
2019-03-06T12:59:51.656Z,9.60
2019-03-06T13:02:26.402Z,8.73
2019-03-06T13:04:59.750Z,8.65
2019-03-06T13:07:33.446Z,8.25
2019-03-06T13:10:13.639Z,8.80
2019-03-06T13:12:50.257Z,7.92
2019-03-06T13:15:29.175Z,10.58
2019-03-06T13:18:02.490Z,8.08
2019-03-06T13:20:36.047Z,8.23
2019-03-06T13:23:09.433Z,7.65
2019-03-06T13:25:42.713Z,8.40
2019-03-06T13:28:16.228Z,6.65
2019-03-06T13:30:49.544Z,7.78
2019-03-06T13:33:24.447Z,7.62
2019-03-06T13:35:57.846Z,9.13
2019-03-06T13:38:31.676Z,7.03
2019-03-06T13:41:05.576Z,6.35
2019-03-06T13:43:38.916Z,4.65
2019-03-06T13:46:12.180Z,6.65
2019-03-06T13:48:46.680Z,5.33
2019-03-06T13:51:19.951Z,5.95
2019-03-06T13:53:53.394Z,7.08
2019-03-06T13:56:26.645Z,8.10
2019-03-06T13:59:01.246Z,6.65
2019-03-06T14:01:34.603Z,9.80
2019-03-06T14:04:08.009Z,11.73
2019-03-06T14:06:42.586Z,7.12
2019-03-06T14:09:16.810Z,10.00
2019-03-06T14:11:50.460Z,8.53
2019-03-06T14:14:23.902Z,8.35
2019-03-06T14:16:57.740Z,9.43
2019-03-06T14:19:32.128Z,9.68
2019-03-06T14:22:06.125Z,7.03
2019-03-06T14:24:39.611Z,8.35
2019-03-06T14:27:13.517Z,8.70
2019-03-06T14:29:46.982Z,10.18
2019-03-06T14:32:20.537Z,9.88
2019-03-06T14:34:54.009Z,6.58
2019-03-06T14:37:28.239Z,9.93
2019-03-06T14:40:09.298Z,8.98
2019-03-06T14:42:36.825Z,11.18
2019-03-06T14:45:14.980Z,11.65
2019-03-06T14:47:49.794Z,12.13
2019-03-06T14:50:27.481Z,13.10
2019-03-06T14:53:01.814Z,15.10
2019-03-06T14:55:36.807Z,15.05
2019-03-06T14:58:10.208Z,11.55
2019-03-06T15:00:43.567Z,10.68
2019-03-06T15:03:17.054Z,11.73
2019-03-06T15:05:51.755Z,13.62
2019-03-06T15:08:25.153Z,14.25
2019-03-06T15:11:00.096Z,15.60
2019-03-06T15:13:33.635Z,13.72
2019-03-06T15:16:08.745Z,14.55
2019-03-06T15:18:42.016Z,15.55
2019-03-06T15:21:15.254Z,15.55
2019-03-06T15:23:48.537Z,14.80
2019-03-06T15:26:21.794Z,16.15
2019-03-06T15:28:55.145Z,17.57
2019-03-06T15:31:28.405Z,17.85
2019-03-06T15:34:01.674Z,15.40
2019-03-06T15:36:35.103Z,15.15
2019-03-06T15:39:28.327Z,16.80
2019-03-06T15:42:03.039Z,15.83
2019-03-06T15:44:36.837Z,16.85
2019-03-06T15:47:10.550Z,17.67
2019-03-06T15:49:43.996Z,23.90
2019-03-06T15:52:17.369Z,22.50
2019-03-06T15:54:52.969Z,20.50
2019-03-06T15:57:26.231Z,19.85
2019-03-06T16:00:01.061Z,17.87
2019-03-06T16:02:35.615Z,15.65
2019-03-06T16:05:13.438Z,15.93
2019-03-06T16:07:46.858Z,15.90
2019-03-06T16:10:20.210Z,17.67
2019-03-06T16:12:53.700Z,17.48
2019-03-06T16:15:29.464Z,18.77
2019-03-06T16:18:06.538Z,18.52
2019-03-06T16:20:40.648Z,53.05
2019-03-06T16:23:15.413Z,38.55
2019-03-06T16:25:48.754Z,35.03
2019-03-06T16:28:22.016Z,28.23
2019-03-06T16:30:55.300Z,20.97
2019-03-06T16:33:28.656Z,18.82
2019-03-06T16:36:02.223Z,17.70
2019-03-06T16:38:35.639Z,16.97
2019-03-06T16:41:09.086Z,16.43
2019-03-06T16:43:42.397Z,16.80
2019-03-06T16:46:17.016Z,12.87
2019-03-06T16:48:50.309Z,13.33
2019-03-06T16:51:23.557Z,12.67
2019-03-06T16:53:56.970Z,12.40
2019-03-06T16:56:30.510Z,19.10
2019-03-06T16:59:03.870Z,16.87
2019-03-06T17:01:37.202Z,19.03
2019-03-06T17:04:10.500Z,24.43
2019-03-06T17:06:43.851Z,26.90
2019-03-06T17:09:17.918Z,35.47
2019-03-06T17:11:51.174Z,30.37
2019-03-06T17:14:25.576Z,21.80
2019-03-06T17:16:58.792Z,20.70
2019-03-06T17:19:32.242Z,17.47
2019-03-06T17:22:05.725Z,18.90
2019-03-06T17:24:38.960Z,21.00
2019-03-06T17:27:12.399Z,22.30
2019-03-06T17:29:45.869Z,16.27
2019-03-06T17:32:19.689Z,17.67
2019-03-06T17:34:54.243Z,18.63
2019-03-06T17:37:27.629Z,20.50
2019-03-06T17:40:01.177Z,30.17
2019-03-06T17:42:35.710Z,44.77
2019-03-06T17:45:09.461Z,118.43
2019-03-06T17:47:42.763Z,141.13
2019-03-06T17:50:18.568Z,116.37
2019-03-06T17:52:51.864Z,96.87
2019-03-06T17:55:25.617Z,89.57
2019-03-06T17:57:59.197Z,107.63
2019-03-06T18:00:46.670Z,86.77
2019-03-06T18:03:21.719Z,74.97
2019-03-06T18:05:55.097Z,92.00
2019-03-06T18:08:28.415Z,81.57
2019-03-06T18:11:01.763Z,56.57
2019-03-06T18:13:35.517Z,45.80
2019-03-06T18:16:08.756Z,39.17
2019-03-06T18:18:42.117Z,43.10
2019-03-06T18:21:16.661Z,26.03
2019-03-06T18:24:15.837Z,30.13
2019-03-06T18:26:59.938Z,24.37
2019-03-06T18:29:38.481Z,27.40
2019-03-06T18:32:15.388Z,24.83
2019-03-06T18:34:48.668Z,24.67
2019-03-06T18:37:22.296Z,23.10
2019-03-06T18:39:55.642Z,26.93
2019-03-06T18:42:28.883Z,21.43
2019-03-06T18:45:02.131Z,21.73
2019-03-06T18:47:35.494Z,21.90
2019-03-06T18:50:16.230Z,21.17
2019-03-06T18:52:50.213Z,22.83
2019-03-06T18:55:23.955Z,32.23
2019-03-06T18:57:57.192Z,29.10
2019-03-06T19:00:33.625Z,32.33
2019-03-06T19:03:06.955Z,28.53
2019-03-06T19:05:40.305Z,29.23
2019-03-06T19:08:13.624Z,27.63
2019-03-06T19:10:47.006Z,26.33
2019-03-06T19:13:21.855Z,25.30
2019-03-06T19:15:55.124Z,22.70
2019-03-06T19:18:28.471Z,36.03
2019-03-06T19:21:02.037Z,24.97
2019-03-06T19:23:35.379Z,25.53
2019-03-06T19:26:08.645Z,20.90
2019-03-06T19:28:43.864Z,21.03
2019-03-06T19:31:17.424Z,21.93
2019-03-06T19:33:50.819Z,22.67
2019-03-06T19:36:24.126Z,20.40
2019-03-06T19:38:58.079Z,21.50
2019-03-06T19:41:31.319Z,26.23
2019-03-06T19:44:05.927Z,24.37
2019-03-06T19:46:39.321Z,24.00
2019-03-06T19:49:12.627Z,22.00
2019-03-06T19:51:51.463Z,20.43
2019-03-06T19:54:21.089Z,21.30
2019-03-06T19:56:55.074Z,19.87
2019-03-06T19:59:28.614Z,21.20
2019-03-06T20:02:02.035Z,22.80
2019-03-06T20:04:36.610Z,25.23
2019-03-06T20:07:09.974Z,23.37
2019-03-06T20:09:43.428Z,28.60
2019-03-06T20:12:16.907Z,29.30
2019-03-06T20:14:50.290Z,26.17
2019-03-06T20:17:23.654Z,24.33
2019-03-06T20:19:57.180Z,24.07
2019-03-06T20:22:30.645Z,22.50
2019-03-06T20:25:04.161Z,25.17
2019-03-06T20:27:37.718Z,27.30
2019-03-06T20:30:15.827Z,23.07
2019-03-06T20:32:49.395Z,22.90
2019-03-06T20:35:25.027Z,21.07
2019-03-06T20:37:58.673Z,22.33
2019-03-06T20:40:32.087Z,20.23
2019-03-06T20:43:05.692Z,20.53
2019-03-06T20:45:39.099Z,22.70
2019-03-06T20:48:12.490Z,21.53
2019-03-06T20:50:45.910Z,20.50
2019-03-06T20:53:19.328Z,22.63
2019-03-06T20:55:52.639Z,21.43
2019-03-06T20:58:26.058Z,23.03
2019-03-06T21:00:59.338Z,26.10
2019-03-06T21:03:32.811Z,25.13
2019-03-06T21:06:06.193Z,20.03
2019-03-06T21:08:39.482Z,25.80
2019-03-06T21:11:12.787Z,27.13
2019-03-06T21:13:46.158Z,26.50
2019-03-06T21:16:21.156Z,20.43
2019-03-06T21:18:55.556Z,20.03
2019-03-06T21:21:28.888Z,21.47
2019-03-06T21:24:02.242Z,19.33
2019-03-06T21:26:37.482Z,19.33
2019-03-06T21:29:10.764Z,23.93
2019-03-06T21:31:44.201Z,20.10
2019-03-06T21:34:17.546Z,20.57
2019-03-06T21:36:50.929Z,25.97
2019-03-06T21:39:25.396Z,26.53
2019-03-06T21:41:58.700Z,19.77
2019-03-06T21:44:54.710Z,19.87
2019-03-06T21:47:29.518Z,19.70
2019-03-06T21:50:02.863Z,18.57
2019-03-06T21:52:37.566Z,19.40
2019-03-06T21:55:15.014Z,18.83
2019-03-06T21:57:49.710Z,19.97
2019-03-06T22:00:25.360Z,22.00
2019-03-06T22:02:58.747Z,21.53
2019-03-06T22:05:32.036Z,19.70
2019-03-06T22:08:08.173Z,19.87
2019-03-06T22:10:41.466Z,18.73
2019-03-06T22:13:16.062Z,21.63
2019-03-06T22:18:41.189Z,19.07
2019-03-06T22:21:14.547Z,18.83
2019-03-06T22:23:47.949Z,17.70
2019-03-06T22:26:22.398Z,18.23
2019-03-06T22:28:55.794Z,17.93
2019-03-06T22:31:29.174Z,17.60
2019-03-06T22:34:02.454Z,17.93
2019-03-06T22:36:35.793Z,18.77
2019-03-06T22:39:09.357Z,18.80
2019-03-06T22:41:42.865Z,18.83
2019-03-06T22:44:16.357Z,16.80
2019-03-06T22:46:49.698Z,17.03
2019-03-06T22:49:23.070Z,17.70
2019-03-06T22:51:56.348Z,17.10
2019-03-06T22:54:29.597Z,18.43
2019-03-06T22:57:03.025Z,16.50
2019-03-06T22:59:37.938Z,17.43
2019-03-06T23:02:11.405Z,17.00
2019-03-06T23:04:44.669Z,16.07
2019-03-06T23:07:18.100Z,16.33
2019-03-06T23:09:51.507Z,16.47
2019-03-06T23:12:24.784Z,16.37
2019-03-06T23:14:58.187Z,15.50
2019-03-06T23:17:31.355Z,15.57
2019-03-06T23:20:06.239Z,14.50
2019-03-06T23:22:39.646Z,14.83
2019-03-06T23:25:13.028Z,14.27
2019-03-06T23:27:46.289Z,14.73
2019-03-06T23:30:21.060Z,14.10
2019-03-06T23:32:54.544Z,13.70
2019-03-06T23:35:28.787Z,14.33
2019-03-06T23:38:02.076Z,15.00
2019-03-06T23:40:35.764Z,14.27
2019-03-06T23:43:14.910Z,12.93
2019-03-06T23:45:48.218Z,13.37
2019-03-06T23:48:21.484Z,13.27
2019-03-06T23:53:58.377Z,12.77
2019-03-06T23:56:31.719Z,11.97
2019-03-06T23:59:05.121Z,12.07
